createdAt,value
2023-12-09T00:03:17.180Z,100426.84
2023-12-09T00:07:19.298Z,100434.34
2023-12-09T00:11:21.480Z,100427.56
2023-12-09T00:15:23.118Z,100434.47
2023-12-09T00:19:24.863Z,100439.63
2023-12-09T00:23:27.330Z,100436.31
2023-12-09T00:27:29.101Z,100440.72
2023-12-09T00:31:31.956Z,100445.91
2023-12-09T00:35:33.485Z,100455.22
2023-12-09T00:39:35.152Z,100450.03
2023-12-09T00:43:36.794Z,100449.81
2023-12-09T00:47:38.421Z,100457.63
2023-12-09T00:51:40.458Z,100467.00
2023-12-09T00:55:42.141Z,100465.19
2023-12-09T00:59:43.801Z,100464.31
2023-12-09T01:03:45.513Z,100461.91
2023-12-09T01:07:47.415Z,100457.53
2023-12-09T01:11:49.794Z,100460.31
2023-12-09T01:15:52.232Z,100469.69
2023-12-09T01:19:53.886Z,100467.25
2023-12-09T01:23:55.498Z,100467.16
2023-12-09T01:27:57.114Z,100465.41
2023-12-09T01:31:58.645Z,100474.69
2023-12-09T01:36:00.297Z,100478.16
2023-12-09T01:40:01.991Z,100477.19
2023-12-09T01:44:03.990Z,100479.72
2023-12-09T01:48:06.179Z,100495.81
2023-12-09T01:52:07.917Z,100492.38
2023-12-09T01:56:12.177Z,100484.84
2023-12-09T02:00:14.224Z,100482.34
2023-12-09T02:04:16.546Z,100480.69
2023-12-09T02:08:18.166Z,100479.97
2023-12-09T02:12:30.279Z,100475.03
2023-12-09T02:16:44.779Z,100491.09
2023-12-09T02:20:46.379Z,100482.59
2023-12-09T02:24:48.047Z,100476.63
2023-12-09T02:29:00.138Z,100469.22
2023-12-09T02:33:03.817Z,100459.09
2023-12-09T02:37:07.019Z,100463.41
2023-12-09T02:41:09.808Z,100445.34
2023-12-09T02:45:12.329Z,100447.06
2023-12-09T02:49:14.156Z,100435.38
2023-12-09T02:53:15.780Z,100431.94
2023-12-09T02:57:17.432Z,100425.25
2023-12-09T03:01:19.055Z,100408.16
2023-12-09T03:05:20.773Z,100413.19
2023-12-09T03:09:22.527Z,100407.06
2023-12-09T03:13:24.408Z,100411.28
2023-12-09T03:17:26.028Z,100416.47
2023-12-09T03:21:27.660Z,100403.00
2023-12-09T03:25:31.466Z,100410.63
2023-12-09T03:29:33.051Z,100401.53
2023-12-09T03:33:34.858Z,100398.97
2023-12-09T03:37:36.488Z,100403.19
2023-12-09T03:41:38.297Z,100401.31
2023-12-09T03:45:41.993Z,100409.84
2023-12-09T03:49:43.673Z,100392.88
2023-12-09T03:53:45.401Z,100401.53
2023-12-09T03:57:47.120Z,100395.69
2023-12-09T04:01:52.856Z,100393.25
2023-12-09T04:05:54.879Z,100391.56
2023-12-09T04:09:56.686Z,100400.06
2023-12-09T04:13:58.265Z,100401.84
2023-12-09T04:18:00.109Z,100398.47
2023-12-09T04:22:01.897Z,100393.53
2023-12-09T04:26:03.745Z,100393.47
2023-12-09T04:30:06.561Z,100416.41
2023-12-09T04:34:08.291Z,100409.63
2023-12-09T04:38:09.953Z,100407.06
2023-12-09T04:42:11.573Z,100389.03
2023-12-09T04:46:13.278Z,100394.06
2023-12-09T04:50:15.254Z,100392.38
2023-12-09T04:54:16.869Z,100386.56
2023-12-09T04:58:18.489Z,100380.50
2023-12-09T05:02:21.498Z,100374.75
2023-12-09T05:06:23.203Z,100359.56
2023-12-09T05:10:24.863Z,100368.00
2023-12-09T05:14:26.490Z,100376.56
2023-12-09T05:18:28.214Z,100362.97
2023-12-09T05:22:30.098Z,100361.38
2023-12-09T05:26:31.817Z,100349.59
2023-12-09T05:30:33.601Z,100344.50
2023-12-09T05:34:35.316Z,100346.31
2023-12-09T05:38:37.169Z,100346.38
2023-12-09T05:42:38.729Z,100343.22
2023-12-09T05:46:41.324Z,100329.50
2023-12-09T05:50:42.962Z,100326.97
2023-12-09T05:54:44.485Z,100322.44
2023-12-09T05:58:46.045Z,100317.19
2023-12-09T06:02:47.787Z,100323.66
2023-12-09T06:06:49.468Z,100325.44
2023-12-09T06:10:51.859Z,100304.47
2023-12-09T06:14:54.493Z,100319.47
2023-12-09T06:18:56.192Z,100325.28
2023-12-09T06:22:57.803Z,100322.00
2023-12-09T06:26:59.459Z,100326.53
2023-12-09T06:31:02.222Z,100302.84
2023-12-09T06:35:04.054Z,100288.81
2023-12-09T06:39:06.723Z,100308.25
2023-12-09T06:43:08.318Z,100309.34
2023-12-09T06:47:11.318Z,100299.28
2023-12-09T06:51:17.325Z,100298.31
2023-12-09T06:55:18.969Z,100288.19
2023-12-09T06:59:20.537Z,100302.56
2023-12-09T07:03:22.641Z,100307.25
2023-12-09T07:07:24.288Z,100305.38
2023-12-09T07:11:26.087Z,100326.34
2023-12-09T07:15:27.862Z,100322.81
2023-12-09T07:19:29.655Z,100321.94
2023-12-09T07:23:31.345Z,100327.38
2023-12-09T07:27:33.013Z,100324.34
2023-12-09T07:31:35.225Z,100315.41
2023-12-09T07:35:36.821Z,100333.72
2023-12-09T07:39:38.509Z,100319.75
2023-12-09T07:43:41.099Z,100313.28
2023-12-09T07:47:42.890Z,100307.75
2023-12-09T07:51:44.506Z,100321.69
2023-12-09T07:55:46.100Z,100311.00
2023-12-09T07:59:47.638Z,100309.53
2023-12-09T08:03:49.396Z,100297.06
2023-12-09T08:07:52.065Z,100285.38
2023-12-09T08:11:54.010Z,100289.13
2023-12-09T08:15:55.605Z,100265.91
2023-12-09T08:19:57.301Z,100275.56
2023-12-09T08:23:59.024Z,100283.28
2023-12-09T08:28:00.703Z,100280.31
2023-12-09T08:32:02.534Z,100285.56
2023-12-09T08:36:04.281Z,100274.84
2023-12-09T08:40:12.010Z,100278.63
2023-12-09T08:44:13.901Z,100263.06
2023-12-09T08:48:15.762Z,100263.34
2023-12-09T08:52:19.497Z,100236.34
2023-12-09T08:56:21.244Z,100239.59
2023-12-09T09:00:27.028Z,100240.97
2023-12-09T09:04:28.891Z,100247.00
2023-12-09T09:08:33.079Z,100251.38
2023-12-09T09:12:34.969Z,100244.78
2023-12-09T09:16:36.610Z,100232.91
2023-12-09T09:20:38.254Z,100219.59
2023-12-09T09:24:40.106Z,100203.06
2023-12-09T09:28:41.716Z,100199.88
2023-12-09T09:32:43.453Z,100192.38
2023-12-09T09:36:46.680Z,100188.91
2023-12-09T09:40:48.537Z,100172.03
2023-12-09T09:45:28.771Z,100176.66
2023-12-09T09:49:36.360Z,100179.41
2023-12-09T09:53:56.594Z,100179.72
2023-12-09T09:57:58.410Z,100166.47
2023-12-09T10:02:04.200Z,100141.78
2023-12-09T10:06:06.608Z,100143.56
2023-12-09T10:10:08.820Z,100138.56
2023-12-09T10:14:10.448Z,100137.69
2023-12-09T10:18:15.549Z,100136.03
2023-12-09T10:22:17.281Z,100125.09
2023-12-09T10:26:19.377Z,100117.41
2023-12-09T10:30:21.110Z,100102.09
2023-12-09T10:34:22.836Z,100105.19
2023-12-09T10:38:24.550Z,100101.72
2023-12-09T10:42:26.630Z,100093.34
2023-12-09T10:46:28.483Z,100072.06
2023-12-09T10:50:32.004Z,100057.63
2023-12-09T10:54:34.202Z,100033.97
2023-12-09T10:58:39.391Z,100029.06
2023-12-09T11:02:42.416Z,100011.19
2023-12-09T11:06:46.422Z,99987.44
2023-12-09T11:10:49.430Z,99974.88
2023-12-09T11:14:50.988Z,99960.59
2023-12-09T11:18:58.335Z,99936.16
2023-12-09T11:23:00.051Z,99913.78
2023-12-09T11:27:01.673Z,99918.13
2023-12-09T11:31:03.266Z,99905.53
2023-12-09T11:35:05.552Z,99901.84
2023-12-09T11:39:11.012Z,99904.38
2023-12-09T11:43:13.161Z,99886.78
2023-12-09T11:47:15.668Z,99872.59
2023-12-09T11:51:17.399Z,99863.31
2023-12-09T11:55:20.604Z,99864.44
2023-12-09T11:59:22.848Z,99866.06
2023-12-09T12:03:24.473Z,99854.94
2023-12-09T12:07:26.158Z,99848.19
2023-12-09T12:11:28.229Z,99820.06
2023-12-09T12:15:29.912Z,99811.09
2023-12-09T12:19:31.655Z,99804.47
2023-12-09T12:23:33.858Z,99801.16
2023-12-09T12:27:37.003Z,99797.03
2023-12-09T12:31:39.034Z,99784.38
2023-12-09T12:35:40.689Z,99786.13
2023-12-09T12:39:43.421Z,99779.56
2023-12-09T12:43:45.468Z,99776.34
2023-12-09T12:47:49.115Z,99755.19
2023-12-09T12:51:52.065Z,99743.25
2023-12-09T12:55:56.176Z,99718.56
2023-12-09T13:00:03.681Z,99685.84
2023-12-09T13:04:09.995Z,99680.41
2023-12-09T13:08:11.609Z,99663.91
2023-12-09T13:12:13.854Z,99651.03
2023-12-09T13:16:15.607Z,99632.91
2023-12-09T13:20:17.712Z,99634.63
2023-12-09T13:24:19.581Z,99635.53
2023-12-09T13:28:21.374Z,99637.13
2023-12-09T13:32:23.021Z,99626.72
2023-12-09T13:36:25.045Z,99611.25
2023-12-09T13:40:26.896Z,99591.63
2023-12-09T13:44:28.818Z,99569.22
2023-12-09T13:48:30.518Z,99567.38
2023-12-09T13:52:33.004Z,99544.38
2023-12-09T13:56:35.932Z,99530.66
2023-12-09T14:00:39.195Z,99529.81
2023-12-09T14:04:41.039Z,99527.13
2023-12-09T14:08:42.684Z,99505.63
2023-12-09T14:12:45.454Z,99492.91
2023-12-09T14:16:47.480Z,99480.22
2023-12-09T14:20:49.208Z,99479.53
2023-12-09T14:24:50.963Z,99463.28
2023-12-09T14:28:52.746Z,99469.09
2023-12-09T14:32:54.561Z,99464.13
2023-12-09T14:36:56.202Z,99432.50
2023-12-09T14:40:57.950Z,99424.56
2023-12-09T14:44:59.618Z,99425.13
2023-12-09T14:49:01.539Z,99419.06
2023-12-09T14:53:03.933Z,99404.47
2023-12-09T14:57:06.089Z,99400.28
2023-12-09T15:01:07.817Z,99385.00
2023-12-09T15:05:09.603Z,99378.19
2023-12-09T15:09:11.487Z,99352.34
2023-12-09T15:13:13.218Z,99335.94
2023-12-09T15:17:14.876Z,99312.06
2023-12-09T15:21:19.459Z,99290.03
2023-12-09T15:25:21.286Z,99285.81
2023-12-09T15:29:23.105Z,99276.38
2023-12-09T15:33:26.614Z,99274.66
2023-12-09T15:37:33.264Z,99275.41
2023-12-09T15:41:34.998Z,99260.09
2023-12-09T15:45:36.672Z,99242.31
2023-12-09T15:49:38.518Z,99209.09
2023-12-09T15:53:40.389Z,99205.81
2023-12-09T15:57:42.277Z,99177.63
2023-12-09T16:01:44.269Z,99158.78
2023-12-09T16:05:48.367Z,99134.88
2023-12-09T16:09:52.986Z,99127.09
2023-12-09T16:13:59.588Z,99111.75
2023-12-09T16:18:01.592Z,99101.66
2023-12-09T16:22:03.346Z,99085.44
2023-12-09T16:26:06.760Z,99096.19
2023-12-09T16:30:08.946Z,99095.25
2023-12-09T16:34:10.739Z,99064.56
2023-12-09T16:38:12.446Z,99053.41
2023-12-09T16:42:14.111Z,99038.03
2023-12-09T16:46:15.732Z,99022.75
2023-12-09T16:50:18.000Z,99009.09
2023-12-09T16:54:21.847Z,98996.38
2023-12-09T16:58:23.557Z,98977.66
2023-12-09T17:02:27.208Z,98963.19
2023-12-09T17:06:29.087Z,98940.31
2023-12-09T17:10:30.808Z,98930.25
2023-12-09T17:14:34.267Z,98919.56
2023-12-09T17:18:36.113Z,98921.53
2023-12-09T17:22:37.793Z,98916.38
2023-12-09T17:26:39.510Z,98920.63
2023-12-09T17:30:41.313Z,98911.22
2023-12-09T17:34:43.172Z,98912.03
2023-12-09T17:38:44.904Z,98923.28
2023-12-09T17:42:46.673Z,98923.78
2023-12-09T17:46:48.331Z,98926.63
2023-12-09T17:50:50.767Z,98928.13
2023-12-09T17:54:52.404Z,98918.09
2023-12-09T17:58:54.763Z,98889.97
2023-12-09T18:02:56.662Z,98884.69
2023-12-09T18:06:58.369Z,98872.84
2023-12-09T18:11:00.046Z,98869.31
2023-12-09T18:15:01.736Z,98850.75
2023-12-09T18:19:04.622Z,98860.41
2023-12-09T18:23:06.302Z,98840.00
2023-12-09T18:27:08.324Z,98853.53
2023-12-09T18:31:13.187Z,98846.75
2023-12-09T18:35:15.000Z,98845.00
2023-12-09T18:39:20.618Z,98853.53
2023-12-09T18:43:22.294Z,98859.56
2023-12-09T18:47:23.929Z,98844.38
2023-12-09T18:51:25.601Z,98816.28
2023-12-09T18:55:27.334Z,98813.66
2023-12-09T18:59:29.002Z,98816.16
2023-12-09T19:03:30.865Z,98816.22
2023-12-09T19:07:32.569Z,98818.81
2023-12-09T19:11:35.509Z,98821.47
2023-12-09T19:15:37.606Z,98818.09
2023-12-09T19:19:39.582Z,98797.59
2023-12-09T19:23:41.314Z,98794.81
2023-12-09T19:27:42.998Z,98789.66
2023-12-09T19:31:44.803Z,98794.81
2023-12-09T19:35:46.502Z,98780.53
2023-12-09T19:39:48.274Z,98778.91
2023-12-09T19:43:49.962Z,98756.06
2023-12-09T19:47:55.807Z,98750.22
2023-12-09T19:51:58.000Z,98750.31
2023-12-09T19:55:59.732Z,98754.63
2023-12-09T20:00:01.498Z,98729.13
2023-12-09T20:04:05.886Z,98684.97
2023-12-09T20:08:07.562Z,98704.44
2023-12-09T20:12:09.800Z,98706.13
2023-12-09T20:16:11.525Z,98723.28
2023-12-09T20:20:13.421Z,98743.72
2023-12-09T20:24:15.119Z,98786.28
2023-12-09T20:28:16.816Z,98808.38
2023-12-09T20:32:18.528Z,98770.22
2023-12-09T20:36:21.826Z,98806.72
2023-12-09T20:40:23.461Z,98825.53
2023-12-09T20:44:25.133Z,98830.84
2023-12-09T20:48:26.788Z,98846.34
2023-12-09T20:52:28.648Z,98876.19
2023-12-09T20:56:30.477Z,98894.09
2023-12-09T21:00:32.263Z,98906.03
2023-12-09T21:04:33.941Z,98923.09
2023-12-09T21:08:39.647Z,98924.84
2023-12-09T21:12:41.314Z,98947.06
2023-12-09T21:16:43.577Z,98954.78
2023-12-09T21:20:45.915Z,98947.13
2023-12-09T21:24:48.618Z,98964.13
2023-12-09T21:28:50.460Z,98981.00
2023-12-09T21:32:52.309Z,98974.91
2023-12-09T21:36:53.967Z,98983.41
2023-12-09T21:40:55.648Z,99008.97
2023-12-09T21:44:57.738Z,99014.94
2023-12-09T21:48:59.760Z,99036.34
2023-12-09T21:53:01.475Z,99047.56
2023-12-09T21:57:03.292Z,99073.31
2023-12-09T22:01:05.298Z,99064.97
2023-12-09T22:05:07.647Z,99070.19
2023-12-09T22:09:09.420Z,99069.28
2023-12-09T22:13:11.153Z,99075.94
2023-12-09T22:17:12.960Z,99075.88
2023-12-09T22:21:14.663Z,99079.31
2023-12-09T22:25:16.253Z,99096.47
2023-12-09T22:29:17.942Z,99105.09
2023-12-09T22:33:19.617Z,99119.72
2023-12-09T22:37:22.803Z,99144.53
2023-12-09T22:41:24.980Z,99176.19
2023-12-09T22:45:26.645Z,99203.63
2023-12-09T22:49:28.522Z,99225.84
2023-12-09T22:53:30.351Z,99275.34
2023-12-09T22:57:32.151Z,99288.34
2023-12-09T23:01:34.174Z,99308.09
2023-12-09T23:05:38.119Z,99311.56
2023-12-09T23:09:39.932Z,99314.97
2023-12-09T23:13:41.913Z,99320.16
2023-12-09T23:17:43.545Z,99328.78
2023-12-09T23:21:45.384Z,99339.94
2023-12-09T23:25:47.194Z,99339.16
2023-12-09T23:29:48.784Z,99360.44
2023-12-09T23:33:50.509Z,99362.16
2023-12-09T23:37:52.425Z,99365.56
2023-12-09T23:41:54.035Z,99377.59
2023-12-09T23:45:55.937Z,99379.38
2023-12-09T23:49:57.578Z,99375.88
2023-12-09T23:53:59.173Z,99377.66
2023-12-09T23:58:00.789Z,99391.72
